In Rescue
 
Open Full Screen Window  High Contrast Mode
January 28, 2020 11:10 PM CST
Weather Information
Wind Direction
  ---
Wind Speed
  00 kt (0 mph)
Wind Gust
  00 kt (0 mph)
Altimeter
30.14 in
Visibility
10 SM
Temperature
-11° C
12° F
Dewpoint
-13° C
F
Humidity
85%
1hr Rain Fall
00.00 in.
24hr Rain Fall
00.00 in.
Sky Condition
Overcast @ 500 ft
IFR

METAR KY63 290510Z AUTO 00000KT 10SM OVC005 M11/M13 A3014 RMK AO2 T11131130

FAA Disclaimer: The data displayed is for advisory purposes only and is not to be used for flight planning or operations.